Dirección General De Aeronáutica Civil

Dirección Meteorológica de Chile - Servicios Climáticos

Informe General de Control de Calidad de la Estación

Listado de niveles de control de calidad para algunos parámetros
Estación Hidango (340042)
Fecha de Revisión de los datos :

Elementos

Registros Niveles de Control Total
Nivel 0 Nivel 1 Nivel 2 Nivel 3 Errores Porcentaje
01 Temperatura del Aire Seco 20.482 0 . 0 . 0 . 0 . 0 0.00 %
02 Humedad Relativa del Aire 0 0 . 0 . 0 . 0 . 0 .
03 Temperatura Máxima PM 9.605 0 . 0 . 35 0.36 % 0 . 35 0.36 %
04 Temperatura Mínima AM 9.657 0 . 0 . 6 0.06 % 0 . 6 0.06 %
05 Viento a 10 m. de Altura 5.590 0 . 0 . 0 . 0 . 0 0.00 %

Totales

45.334 . 0.0000 % . 0.0000 % . 0.0904 % . 0.0000 % 41 0.0904 %

Detalle de Errores Encontrados

Nivel Fecha del Dato Descripción Información Error Fecha Ingreso
2 1989-05-08 12:00:00 Temperatura 10.0 del 08-05-1989 12:00, Menor que la Mínima 10.2 08-05-1989 12:00 10.0 -- 10.2 2023-12-29 03:36:00
2 1989-05-11 12:00:00 Temperatura 10.2 del 11-05-1989 12:00, Menor que la Mínima 10.4 11-05-1989 12:00 10.2 -- 10.4 2023-12-29 03:36:00
2 1989-05-26 12:00:00 Temperatura 8.8 del 26-05-1989 12:00, Menor que la Mínima 9.0 26-05-1989 12:00 8.8 -- 9.0 2023-12-29 03:36:00
2 1989-06-16 12:00:00 Temperatura 4.0 del 16-06-1989 12:00, Menor que la Mínima 4.3 16-06-1989 12:00 4.0 -- 4.3 2023-12-29 03:36:00
2 1991-06-12 12:00:00 Temperatura 9.0 del 12-06-1991 12:00, Menor que la Mínima 9.2 12-06-1991 12:00 9.0 -- 9.2 2023-12-29 03:39:00
2 2011-03-23 12:00:00 Temperatura 9.8 del 23-03-2011 12:00, Menor que la Mínima 11.0 23-03-2011 12:00 9.8 -- 11.0 2012-07-30 15:10:00
2 1999-09-30 00:00:00 Temperatura 18.8 del 29-09-1999 18:00, Mayor que la Máxima 17.2 30-09-1999 00:00 18.8 -- 17.2 2023-12-29 03:50:00
2 2000-04-01 00:00:00 Temperatura 25.4 del 31-03-2000 18:00, Mayor que la Máxima 23.2 01-04-2000 00:00 25.4 -- 23.2 2023-12-29 03:50:00
2 2003-05-17 00:00:00 Temperatura 15.8 del 16-05-2003 18:00, Mayor que la Máxima 15.6 17-05-2003 00:00 15.8 -- 15.6 2023-12-29 03:53:00
2 2004-09-01 00:00:00 Temperatura 16.2 del 31-08-2004 18:00, Mayor que la Máxima 15.8 01-09-2004 00:00 16.2 -- 15.8 2023-12-31 02:41:00
2 2011-01-04 00:00:00 Temperatura 22.2 del 03-01-2011 18:00, Mayor que la Máxima 21.2 04-01-2011 00:00 22.2 -- 21.2 2012-07-19 15:19:00
2 2011-01-05 00:00:00 Temperatura 20.2 del 04-01-2011 18:00, Mayor que la Máxima 20.0 05-01-2011 00:00 20.2 -- 20.0 2012-07-19 15:37:00
2 2011-01-13 00:00:00 Temperatura 26.2 del 12-01-2011 18:00, Mayor que la Máxima 26.0 13-01-2011 00:00 26.2 -- 26.0 2012-07-25 20:58:00
2 2011-02-02 00:00:00 Temperatura 27.8 del 01-02-2011 18:00, Mayor que la Máxima 27.0 02-02-2011 00:00 27.8 -- 27.0 2012-07-27 16:45:00
2 2011-02-03 00:00:00 Temperatura 25.0 del 02-02-2011 18:00, Mayor que la Máxima 24.8 03-02-2011 00:00 25.0 -- 24.8 2012-07-27 16:48:00
2 2011-02-04 00:00:00 Temperatura 24.2 del 03-02-2011 18:00, Mayor que la Máxima 24.0 04-02-2011 00:00 24.2 -- 24.0 2012-07-27 16:52:00
2 2011-04-09 00:00:00 Temperatura 20.4 del 08-04-2011 18:00, Mayor que la Máxima 16.8 09-04-2011 00:00 20.4 -- 16.8 2012-07-30 18:28:00
2 2011-04-21 00:00:00 Temperatura 19.2 del 20-04-2011 18:00, Mayor que la Máxima 18.8 21-04-2011 00:00 19.2 -- 18.8 2012-07-30 18:54:00
2 2011-07-01 00:00:00 Temperatura 9.8 del 30-06-2011 18:00, Mayor que la Máxima 9.0 01-07-2011 00:00 9.8 -- 9.0 2012-07-31 16:53:00
2 2011-07-02 00:00:00 Temperatura 10.0 del 01-07-2011 18:00, Mayor que la Máxima 9.2 02-07-2011 00:00 10.0 -- 9.2 2012-08-01 18:12:00
2 2011-07-05 00:00:00 Temperatura 9.0 del 04-07-2011 18:00, Mayor que la Máxima 8.0 05-07-2011 00:00 9.0 -- 8.0 2012-08-01 18:20:00
2 2011-07-06 00:00:00 Temperatura 11.8 del 05-07-2011 18:00, Mayor que la Máxima 10.8 06-07-2011 00:00 11.8 -- 10.8 2012-08-01 18:36:00
2 2011-07-07 00:00:00 Temperatura 13.8 del 06-07-2011 18:00, Mayor que la Máxima 13.0 07-07-2011 00:00 13.8 -- 13.0 2012-08-01 18:39:00
2 2011-07-26 00:00:00 Temperatura 11.4 del 25-07-2011 18:00, Mayor que la Máxima 11.2 26-07-2011 00:00 11.4 -- 11.2 2012-08-01 20:03:00
2 2011-07-29 00:00:00 Temperatura 9.6 del 28-07-2011 18:00, Mayor que la Máxima 9.0 29-07-2011 00:00 9.6 -- 9.0 2012-08-01 20:18:00
2 2011-07-30 00:00:00 Temperatura 11.6 del 29-07-2011 18:00, Mayor que la Máxima 11.0 30-07-2011 00:00 11.6 -- 11.0 2012-08-01 20:23:00
2 2011-08-02 00:00:00 Temperatura 10.8 del 01-08-2011 18:00, Mayor que la Máxima 9.2 02-08-2011 00:00 10.8 -- 9.2 2012-08-01 20:40:00
2 2011-08-04 00:00:00 Temperatura 12.6 del 03-08-2011 18:00, Mayor que la Máxima 12.0 04-08-2011 00:00 12.6 -- 12.0 2012-08-01 20:46:00
2 2011-08-18 00:00:00 Temperatura 10.6 del 17-08-2011 18:00, Mayor que la Máxima 10.0 18-08-2011 00:00 10.6 -- 10.0 2012-08-02 13:23:00
2 2011-08-27 00:00:00 Temperatura 10.8 del 26-08-2011 18:00, Mayor que la Máxima 10.6 27-08-2011 00:00 10.8 -- 10.6 2012-08-02 14:18:00
2 2011-08-30 00:00:00 Temperatura 12.4 del 29-08-2011 18:00, Mayor que la Máxima 11.8 30-08-2011 00:00 12.4 -- 11.8 2012-08-02 14:21:00
2 2011-09-07 00:00:00 Temperatura 15.2 del 06-09-2011 18:00, Mayor que la Máxima 14.8 07-09-2011 00:00 15.2 -- 14.8 2012-08-02 15:33:00
2 2011-09-09 00:00:00 Temperatura 16.2 del 08-09-2011 18:00, Mayor que la Máxima 16.0 09-09-2011 00:00 16.2 -- 16.0 2012-08-02 15:39:00
2 2011-09-13 00:00:00 Temperatura 21.8 del 12-09-2011 18:00, Mayor que la Máxima 21.2 13-09-2011 00:00 21.8 -- 21.2 2012-08-02 15:45:00
2 2011-09-16 00:00:00 Temperatura 16.6 del 15-09-2011 18:00, Mayor que la Máxima 16.4 16-09-2011 00:00 16.6 -- 16.4 2012-08-02 15:54:00
2 2011-09-29 00:00:00 Temperatura 28.0 del 28-09-2011 18:00, Mayor que la Máxima 24.0 29-09-2011 00:00 28.0 -- 24.0 2012-08-02 18:32:00
2 2011-09-30 00:00:00 Temperatura 29.0 del 29-09-2011 18:00, Mayor que la Máxima 25.0 30-09-2011 00:00 29.0 -- 25.0 2012-08-02 18:37:00
2 2011-11-09 00:00:00 Temperatura 15.4 del 08-11-2011 18:00, Mayor que la Máxima 14.2 09-11-2011 00:00 15.4 -- 14.2 2012-08-03 14:11:00
2 2011-11-17 00:00:00 Temperatura 13.6 del 16-11-2011 18:00, Mayor que la Máxima 13.0 17-11-2011 00:00 13.6 -- 13.0 2012-08-03 14:35:00
2 2011-11-30 00:00:00 Temperatura 27.2 del 29-11-2011 18:00, Mayor que la Máxima 25.4 30-11-2011 00:00 27.2 -- 25.4 2012-08-03 15:35:00
2 2011-12-01 00:00:00 Temperatura 23.8 del 30-11-2011 18:00, Mayor que la Máxima 22.4 01-12-2011 00:00 23.8 -- 22.4 2012-08-03 15:39:00
Errores del Nivel 41
Informe generado el 05-03-2024 11:14
Requerimiento: RE6001